Terminal Aerodrome Forecast
Issued by NWS Topeka, KS

Home | Current Version | Previous Version | Graphics & Text | Print | Product List | Glossary On
Versions: 1 2 3 4 5 6 7 8 9 10 11 12 13 14 15
000
FTUS43 KTOP 231700
TAFTOP
TAF
KTOP 231736Z 2318/2418 28007KT P6SM OVC022
      TEMPO 2319/2321 BKN015
     FM232100 32010KT 6SM -RA BR BKN015
     FM240200 33014G21KT 3SM -RASN BR OVC008=

USA.gov is the U.S. government's official web portal to all federal, state and local government web resources and services.